sensor_id;sensor_type;location;lat;lon;timestamp;P1;durP1;ratioP1;P2;durP2;ratioP2
76833;SDS011;65793;42.678;23.332;2022-12-18T14:01:58;384.15;;;251.82;;
76833;SDS011;65793;42.678;23.332;2022-12-18T19:15:22;17.55;;;14.23;;
76833;SDS011;65793;42.678;23.332;2022-12-18T19:21:26;20.63;;;15.98;;
76833;SDS011;65793;42.678;23.332;2022-12-18T19:24:28;15.88;;;14.02;;
76833;SDS011;65793;42.678;23.332;2022-12-18T19:27:30;18.43;;;15.97;;
76833;SDS011;65793;42.678;23.332;2022-12-18T19:30:38;19.90;;;16.10;;
76833;SDS011;65793;42.678;23.332;2022-12-18T19:33:40;20.45;;;16.13;;
76833;SDS011;65793;42.678;23.332;2022-12-18T19:36:44;18.63;;;14.77;;
76833;SDS011;65793;42.678;23.332;2022-12-18T19:39:46;16.08;;;14.10;;
76833;SDS011;65793;42.678;23.332;2022-12-18T19:42:48;17.63;;;15.17;;
76833;SDS011;65793;42.678;23.332;2022-12-18T19:45:54;47.60;;;25.08;;
76833;SDS011;65793;42.678;23.332;2022-12-18T19:48:57;78.03;;;40.70;;
76833;SDS011;65793;42.678;23.332;2022-12-18T19:52:00;99.55;;;52.53;;
76833;SDS011;65793;42.678;23.332;2022-12-18T19:55:02;107.45;;;51.33;;
76833;SDS011;65793;42.678;23.332;2022-12-18T19:58:04;89.75;;;46.60;;
76833;SDS011;65793;42.678;23.332;2022-12-18T20:01:11;95.53;;;48.78;;
76833;SDS011;65793;42.678;23.332;2022-12-18T20:04:13;85.78;;;44.47;;
76833;SDS011;65793;42.678;23.332;2022-12-18T20:07:15;82.97;;;44.90;;
76833;SDS011;65793;42.678;23.332;2022-12-18T20:10:17;81.47;;;41.50;;
76833;SDS011;65793;42.678;23.332;2022-12-18T20:13:20;80.75;;;43.00;;
76833;SDS011;65793;42.678;23.332;2022-12-18T20:16:23;81.28;;;41.10;;
76833;SDS011;65793;42.678;23.332;2022-12-18T20:19:26;77.35;;;41.50;;
76833;SDS011;65793;42.678;23.332;2022-12-18T20:22:28;70.32;;;39.78;;
76833;SDS011;65793;42.678;23.332;2022-12-18T20:25:31;60.95;;;35.83;;
76833;SDS011;65793;42.678;23.332;2022-12-18T20:28:33;70.78;;;36.60;;
76833;SDS011;65793;42.678;23.332;2022-12-18T20:31:36;61.13;;;34.83;;
76833;SDS011;65793;42.678;23.332;2022-12-18T20:34:38;61.30;;;32.42;;
76833;SDS011;65793;42.678;23.332;2022-12-18T20:37:40;53.80;;;32.08;;
76833;SDS011;65793;42.678;23.332;2022-12-18T20:40:42;53.92;;;32.53;;
76833;SDS011;65793;42.678;23.332;2022-12-18T20:43:44;52.35;;;32.75;;
76833;SDS011;65793;42.678;23.332;2022-12-18T20:46:48;61.53;;;32.88;;
76833;SDS011;65793;42.678;23.332;2022-12-18T20:49:51;53.40;;;33.13;;
76833;SDS011;65793;42.678;23.332;2022-12-18T20:52:53;55.42;;;30.65;;
76833;SDS011;65793;42.678;23.332;2022-12-18T20:55:55;45.95;;;29.35;;
76833;SDS011;65793;42.678;23.332;2022-12-18T20:58:57;47.22;;;28.15;;
76833;SDS011;65793;42.678;23.332;2022-12-18T21:02:02;47.92;;;28.40;;
76833;SDS011;65793;42.678;23.332;2022-12-18T21:08:06;47.17;;;26.52;;
76833;SDS011;65793;42.678;23.332;2022-12-18T21:11:13;42.70;;;26.05;;
76833;SDS011;65793;42.678;23.332;2022-12-18T21:14:30;37.75;;;24.98;;
76833;SDS011;65793;42.678;23.332;2022-12-18T21:17:33;39.35;;;23.13;;
76833;SDS011;65793;42.678;23.332;2022-12-18T21:20:36;38.10;;;24.38;;
76833;SDS011;65793;42.678;23.332;2022-12-18T21:23:38;35.08;;;22.75;;
76833;SDS011;65793;42.678;23.332;2022-12-18T21:26:43;32.63;;;21.55;;
76833;SDS011;65793;42.678;23.332;2022-12-18T21:29:47;34.50;;;22.35;;
76833;SDS011;65793;42.678;23.332;2022-12-18T21:32:50;27.55;;;19.50;;
76833;SDS011;65793;42.678;23.332;2022-12-18T21:38:54;30.88;;;20.27;;
76833;SDS011;65793;42.678;23.332;2022-12-18T21:41:57;32.00;;;20.05;;
76833;SDS011;65793;42.678;23.332;2022-12-18T21:45:16;32.67;;;19.27;;
76833;SDS011;65793;42.678;23.332;2022-12-18T21:48:20;28.00;;;18.15;;
76833;SDS011;65793;42.678;23.332;2022-12-18T21:54:24;24.58;;;16.55;;
76833;SDS011;65793;42.678;23.332;2022-12-18T21:57:27;22.88;;;15.95;;
76833;SDS011;65793;42.678;23.332;2022-12-18T22:00:29;26.38;;;17.15;;
76833;SDS011;65793;42.678;23.332;2022-12-18T22:03:33;22.55;;;14.38;;
76833;SDS011;65793;42.678;23.332;2022-12-18T22:06:35;22.70;;;15.93;;
76833;SDS011;65793;42.678;23.332;2022-12-18T22:09:37;27.38;;;17.42;;
76833;SDS011;65793;42.678;23.332;2022-12-18T22:12:39;23.20;;;15.80;;
76833;SDS011;65793;42.678;23.332;2022-12-18T22:15:41;21.55;;;15.05;;
76833;SDS011;65793;42.678;23.332;2022-12-18T22:18:44;18.20;;;14.57;;
76833;SDS011;65793;42.678;23.332;2022-12-18T22:24:49;20.25;;;14.80;;
76833;SDS011;65793;42.678;23.332;2022-12-18T22:27:51;18.30;;;12.82;;
76833;SDS011;65793;42.678;23.332;2022-12-18T22:31:07;20.00;;;14.13;;
76833;SDS011;65793;42.678;23.332;2022-12-18T22:34:10;18.90;;;13.38;;
76833;SDS011;65793;42.678;23.332;2022-12-18T22:37:12;19.70;;;13.93;;
76833;SDS011;65793;42.678;23.332;2022-12-18T22:40:16;17.45;;;14.02;;
76833;SDS011;65793;42.678;23.332;2022-12-18T22:43:20;19.25;;;13.77;;
76833;SDS011;65793;42.678;23.332;2022-12-18T22:46:22;16.40;;;12.48;;
76833;SDS011;65793;42.678;23.332;2022-12-18T22:49:26;16.30;;;12.47;;
76833;SDS011;65793;42.678;23.332;2022-12-18T22:52:28;17.48;;;13.32;;
76833;SDS011;65793;42.678;23.332;2022-12-18T22:55:30;15.50;;;11.95;;
76833;SDS011;65793;42.678;23.332;2022-12-18T22:58:32;15.85;;;12.02;;
76833;SDS011;65793;42.678;23.332;2022-12-18T23:01:34;19.33;;;13.07;;
76833;SDS011;65793;42.678;23.332;2022-12-18T23:04:38;13.98;;;10.95;;
76833;SDS011;65793;42.678;23.332;2022-12-18T23:10:41;18.88;;;13.20;;
76833;SDS011;65793;42.678;23.332;2022-12-18T23:13:44;15.77;;;13.77;;
76833;SDS011;65793;42.678;23.332;2022-12-18T23:16:46;15.43;;;12.50;;
76833;SDS011;65793;42.678;23.332;2022-12-18T23:19:50;14.50;;;10.65;;
76833;SDS011;65793;42.678;23.332;2022-12-18T23:25:58;11.18;;;9.95;;
76833;SDS011;65793;42.678;23.332;2022-12-18T23:29:01;13.10;;;10.27;;
76833;SDS011;65793;42.678;23.332;2022-12-18T23:32:04;14.52;;;12.27;;
76833;SDS011;65793;42.678;23.332;2022-12-18T23:35:08;13.48;;;10.48;;
76833;SDS011;65793;42.678;23.332;2022-12-18T23:38:10;11.93;;;10.05;;
76833;SDS011;65793;42.678;23.332;2022-12-18T23:41:12;12.68;;;11.10;;
76833;SDS011;65793;42.678;23.332;2022-12-18T23:44:17;10.98;;;9.88;;
76833;SDS011;65793;42.678;23.332;2022-12-18T23:47:22;13.45;;;10.52;;
76833;SDS011;65793;42.678;23.332;2022-12-18T23:50:26;12.02;;;9.93;;
76833;SDS011;65793;42.678;23.332;2022-12-18T23:56:29;10.43;;;9.25;;
76833;SDS011;65793;42.678;23.332;2022-12-18T23:59:35;10.38;;;9.32;;
